Overview Statistics Trail Chart Weather Telemetry Raw packets
 

This is the latest recevied weather packets stored in our database for station/object K1BES. If no packets are shown the sender has not sent any weather packets the latest 10 day(s).

<< 62 63 64 65 66 67 68 >>
Time Temp. Humidity Pressure Rain* Wind** Luminosity Snow
1788219834 25° C 94% 1018.6 hPa 0 mm - 17 W/m² -
1788219530 25° C 94% 1018.6 hPa 0 mm - 27 W/m² -
1788219225 25° C 93% 1018.4 hPa 0 mm - 40 W/m² -
1788218920 25° C 93% 1018.4 hPa 0 mm - 48 W/m² -
1788218616 25° C 93% 1018.4 hPa 1.78 mm - 58 W/m² -
1788218312 25.56° C 93% 1018.6 hPa 1.78 mm - 68 W/m² -
1788218008 25.56° C 92% 1018.6 hPa 0 mm - 96 W/m² -
1788217704 25.56° C 91% 1018.8 hPa 1.27 mm - 110 W/m² -
1788217398 26.11° C 90% 1018.7 hPa 4.32 mm - 101 W/m² -
1788217098 26.67° C 88% 1018.5 hPa 6.1 mm - 73 W/m² -
1788216793 27.78° C 83% 1018.3 hPa 1.27 mm - 54 W/m² -
1788216489 28.33° C 79% 1018.2 hPa 0 mm - 39 W/m² -
1788216183 28.89° C 77% 1018.3 hPa 0 mm - 39 W/m² -
1788215878 30.56° C 72% 1018 hPa 0 mm - 35 W/m² -
1788215574 31.11° C 73% 1017.9 hPa 0 mm - 140 W/m² -
1788215271 31.11° C 72% 1017.7 hPa 0 mm - 192 W/m² -
1788214966 31.11° C 72% 1017.4 hPa 0 mm - 162 W/m² -
1788214661 31.11° C 73% 1017.4 hPa 0 mm - 141 W/m² -
1788214356 31.11° C 72% 1017.1 hPa 0 mm - 126 W/m² -
1788214051 31.11° C 71% 1017.1 hPa 0 mm - 114 W/m² -
1788213747 31.11° C 72% 1017 hPa 0 mm - 124 W/m² -
1788213447 31.11° C 72% 1017 hPa 0 mm - 101 W/m² -
1788213143 31.11° C 73% 1017.2 hPa 0 mm - 95 W/m² -
1788212840 31.11° C 73% 1017 hPa 0 mm - 87 W/m² -
1788212536 31.11° C 72% 1016.7 hPa 0 mm - 80 W/m² -

* Rain latest hour (hover to see other rain measurements)
** Current wind speed in m/s (hover to see current wind gust speed)